sensor_id;sensor_type;location;lat;lon;timestamp;P1;durP1;ratioP1;P2;durP2;ratioP2
5460;SDS011;2753;49.196;8.286;2023-09-18T00:00:50;8.60;;;4.27;;
5460;SDS011;2753;49.196;8.286;2023-09-18T00:03:19;9.83;;;4.40;;
5460;SDS011;2753;49.196;8.286;2023-09-18T00:05:52;11.23;;;4.30;;
5460;SDS011;2753;49.196;8.286;2023-09-18T00:08:18;5.23;;;3.57;;
5460;SDS011;2753;49.196;8.286;2023-09-18T00:10:48;8.10;;;3.90;;
5460;SDS011;2753;49.196;8.286;2023-09-18T00:13:16;7.03;;;4.17;;
5460;SDS011;2753;49.196;8.286;2023-09-18T00:15:41;8.23;;;4.87;;
5460;SDS011;2753;49.196;8.286;2023-09-18T00:18:09;4.00;;;3.60;;
5460;SDS011;2753;49.196;8.286;2023-09-18T00:20:35;10.90;;;4.37;;
5460;SDS011;2753;49.196;8.286;2023-09-18T00:23:01;14.50;;;4.80;;
5460;SDS011;2753;49.196;8.286;2023-09-18T00:25:27;12.33;;;4.30;;
5460;SDS011;2753;49.196;8.286;2023-09-18T00:27:53;4.30;;;3.90;;
5460;SDS011;2753;49.196;8.286;2023-09-18T00:30:19;6.70;;;4.30;;
5460;SDS011;2753;49.196;8.286;2023-09-18T00:32:44;6.67;;;3.90;;
5460;SDS011;2753;49.196;8.286;2023-09-18T00:35:12;8.70;;;4.20;;
5460;SDS011;2753;49.196;8.286;2023-09-18T00:37:37;4.83;;;4.00;;
5460;SDS011;2753;49.196;8.286;2023-09-18T00:40:05;11.23;;;4.03;;
5460;SDS011;2753;49.196;8.286;2023-09-18T00:42:31;11.33;;;3.87;;
5460;SDS011;2753;49.196;8.286;2023-09-18T00:44:57;7.10;;;4.60;;
5460;SDS011;2753;49.196;8.286;2023-09-18T00:47:23;12.73;;;4.23;;
5460;SDS011;2753;49.196;8.286;2023-09-18T00:49:49;8.70;;;4.37;;
5460;SDS011;2753;49.196;8.286;2023-09-18T00:52:16;8.40;;;4.70;;
5460;SDS011;2753;49.196;8.286;2023-09-18T00:54:44;16.20;;;4.83;;
5460;SDS011;2753;49.196;8.286;2023-09-18T00:57:11;10.13;;;4.03;;
5460;SDS011;2753;49.196;8.286;2023-09-18T00:59:38;11.90;;;5.70;;
5460;SDS011;2753;49.196;8.286;2023-09-18T01:02:05;9.77;;;5.47;;
5460;SDS011;2753;49.196;8.286;2023-09-18T01:04:31;11.50;;;5.10;;
5460;SDS011;2753;49.196;8.286;2023-09-18T01:06:59;7.60;;;4.00;;
5460;SDS011;2753;49.196;8.286;2023-09-18T01:09:28;14.17;;;4.90;;
5460;SDS011;2753;49.196;8.286;2023-09-18T01:12:01;5.40;;;4.13;;
5460;SDS011;2753;49.196;8.286;2023-09-18T01:17:17;9.13;;;4.60;;
5460;SDS011;2753;49.196;8.286;2023-09-18T01:19:45;7.47;;;4.40;;
5460;SDS011;2753;49.196;8.286;2023-09-18T01:22:15;8.47;;;4.27;;
5460;SDS011;2753;49.196;8.286;2023-09-18T01:24:43;7.40;;;4.50;;
5460;SDS011;2753;49.196;8.286;2023-09-18T01:27:13;11.43;;;4.10;;
5460;SDS011;2753;49.196;8.286;2023-09-18T01:29:42;4.40;;;3.83;;
5460;SDS011;2753;49.196;8.286;2023-09-18T01:32:08;13.53;;;4.57;;
5460;SDS011;2753;49.196;8.286;2023-09-18T01:34:34;10.73;;;4.23;;
5460;SDS011;2753;49.196;8.286;2023-09-18T01:37:06;9.30;;;4.30;;
5460;SDS011;2753;49.196;8.286;2023-09-18T01:39:37;6.47;;;4.03;;
5460;SDS011;2753;49.196;8.286;2023-09-18T01:42:04;8.47;;;4.27;;
5460;SDS011;2753;49.196;8.286;2023-09-18T01:44:34;8.40;;;4.30;;
5460;SDS011;2753;49.196;8.286;2023-09-18T01:47:02;11.90;;;4.70;;
5460;SDS011;2753;49.196;8.286;2023-09-18T01:49:32;15.80;;;4.00;;
5460;SDS011;2753;49.196;8.286;2023-09-18T01:51:59;7.43;;;4.27;;
5460;SDS011;2753;49.196;8.286;2023-09-18T01:54:25;8.67;;;4.07;;
5460;SDS011;2753;49.196;8.286;2023-09-18T01:56:54;7.07;;;4.50;;
5460;SDS011;2753;49.196;8.286;2023-09-18T01:59:20;7.97;;;4.37;;
5460;SDS011;2753;49.196;8.286;2023-09-18T02:01:47;9.47;;;4.10;;
5460;SDS011;2753;49.196;8.286;2023-09-18T02:04:13;10.80;;;4.80;;
5460;SDS011;2753;49.196;8.286;2023-09-18T02:06:38;10.67;;;4.80;;
5460;SDS011;2753;49.196;8.286;2023-09-18T02:09:07;6.60;;;5.30;;
5460;SDS011;2753;49.196;8.286;2023-09-18T02:11:34;7.13;;;4.67;;
5460;SDS011;2753;49.196;8.286;2023-09-18T02:14:04;12.87;;;4.70;;
5460;SDS011;2753;49.196;8.286;2023-09-18T02:16:30;8.53;;;4.50;;
5460;SDS011;2753;49.196;8.286;2023-09-18T02:19:00;18.80;;;4.27;;
5460;SDS011;2753;49.196;8.286;2023-09-18T02:21:27;14.27;;;5.37;;
5460;SDS011;2753;49.196;8.286;2023-09-18T02:23:53;7.10;;;4.27;;
5460;SDS011;2753;49.196;8.286;2023-09-18T02:26:20;9.80;;;4.50;;
5460;SDS011;2753;49.196;8.286;2023-09-18T02:28:46;11.83;;;4.10;;
5460;SDS011;2753;49.196;8.286;2023-09-18T02:31:12;6.00;;;4.40;;
5460;SDS011;2753;49.196;8.286;2023-09-18T02:33:39;6.47;;;4.50;;
5460;SDS011;2753;49.196;8.286;2023-09-18T02:36:05;11.13;;;4.00;;
5460;SDS011;2753;49.196;8.286;2023-09-18T02:38:32;8.17;;;3.80;;
5460;SDS011;2753;49.196;8.286;2023-09-18T02:40:58;9.57;;;4.23;;
5460;SDS011;2753;49.196;8.286;2023-09-18T02:43:24;12.10;;;4.60;;
5460;SDS011;2753;49.196;8.286;2023-09-18T02:45:50;8.87;;;4.60;;
5460;SDS011;2753;49.196;8.286;2023-09-18T02:48:16;20.10;;;4.80;;
5460;SDS011;2753;49.196;8.286;2023-09-18T02:50:42;7.03;;;4.40;;
5460;SDS011;2753;49.196;8.286;2023-09-18T02:53:12;9.57;;;4.33;;
5460;SDS011;2753;49.196;8.286;2023-09-18T02:55:49;14.17;;;4.80;;
5460;SDS011;2753;49.196;8.286;2023-09-18T02:58:17;9.00;;;4.40;;
5460;SDS011;2753;49.196;8.286;2023-09-18T03:00:48;12.03;;;4.40;;
5460;SDS011;2753;49.196;8.286;2023-09-18T03:03:15;11.40;;;4.67;;
5460;SDS011;2753;49.196;8.286;2023-09-18T03:05:41;7.50;;;4.67;;
5460;SDS011;2753;49.196;8.286;2023-09-18T03:08:12;8.60;;;5.10;;
5460;SDS011;2753;49.196;8.286;2023-09-18T03:10:39;7.77;;;4.50;;
5460;SDS011;2753;49.196;8.286;2023-09-18T03:13:07;7.63;;;4.40;;
5460;SDS011;2753;49.196;8.286;2023-09-18T03:15:34;11.30;;;4.80;;
5460;SDS011;2753;49.196;8.286;2023-09-18T03:18:00;11.07;;;4.37;;
5460;SDS011;2753;49.196;8.286;2023-09-18T03:20:27;8.03;;;4.70;;
5460;SDS011;2753;49.196;8.286;2023-09-18T03:22:54;11.37;;;4.87;;
5460;SDS011;2753;49.196;8.286;2023-09-18T03:25:21;13.90;;;5.23;;
5460;SDS011;2753;49.196;8.286;2023-09-18T03:27:48;12.93;;;4.50;;
5460;SDS011;2753;49.196;8.286;2023-09-18T03:30:16;11.40;;;5.00;;
5460;SDS011;2753;49.196;8.286;2023-09-18T03:32:43;8.63;;;4.67;;
5460;SDS011;2753;49.196;8.286;2023-09-18T03:35:09;17.57;;;5.27;;
5460;SDS011;2753;49.196;8.286;2023-09-18T03:37:42;16.63;;;4.40;;
5460;SDS011;2753;49.196;8.286;2023-09-18T03:40:09;13.83;;;4.43;;
5460;SDS011;2753;49.196;8.286;2023-09-18T03:42:35;22.47;;;3.87;;
5460;SDS011;2753;49.196;8.286;2023-09-18T03:45:01;22.03;;;5.00;;
5460;SDS011;2753;49.196;8.286;2023-09-18T03:47:28;16.47;;;4.00;;
5460;SDS011;2753;49.196;8.286;2023-09-18T03:49:53;18.90;;;4.13;;
5460;SDS011;2753;49.196;8.286;2023-09-18T03:52:19;20.40;;;3.30;;
5460;SDS011;2753;49.196;8.286;2023-09-18T03:54:45;19.50;;;4.27;;
5460;SDS011;2753;49.196;8.286;2023-09-18T03:57:10;20.83;;;4.90;;
5460;SDS011;2753;49.196;8.286;2023-09-18T03:59:36;11.27;;;3.57;;
5460;SDS011;2753;49.196;8.286;2023-09-18T04:02:02;14.83;;;3.37;;
5460;SDS011;2753;49.196;8.286;2023-09-18T04:04:31;20.47;;;3.70;;
5460;SDS011;2753;49.196;8.286;2023-09-18T04:06:57;15.90;;;4.37;;
5460;SDS011;2753;49.196;8.286;2023-09-18T04:09:23;20.63;;;4.07;;
5460;SDS011;2753;49.196;8.286;2023-09-18T04:11:49;9.30;;;4.27;;
5460;SDS011;2753;49.196;8.286;2023-09-18T04:14:15;17.70;;;4.27;;
5460;SDS011;2753;49.196;8.286;2023-09-18T04:16:41;12.23;;;4.10;;
5460;SDS011;2753;49.196;8.286;2023-09-18T04:19:07;11.10;;;4.03;;
5460;SDS011;2753;49.196;8.286;2023-09-18T04:21:34;19.03;;;4.53;;
5460;SDS011;2753;49.196;8.286;2023-09-18T04:24:01;13.33;;;4.17;;
5460;SDS011;2753;49.196;8.286;2023-09-18T04:26:27;9.23;;;3.47;;
5460;SDS011;2753;49.196;8.286;2023-09-18T04:28:56;22.37;;;4.10;;
5460;SDS011;2753;49.196;8.286;2023-09-18T04:31:23;17.67;;;4.10;;
5460;SDS011;2753;49.196;8.286;2023-09-18T04:33:48;16.13;;;4.40;;
5460;SDS011;2753;49.196;8.286;2023-09-18T04:36:14;13.40;;;3.90;;
5460;SDS011;2753;49.196;8.286;2023-09-18T04:38:40;17.77;;;3.47;;
5460;SDS011;2753;49.196;8.286;2023-09-18T04:43:51;19.97;;;4.03;;
5460;SDS011;2753;49.196;8.286;2023-09-18T04:46:16;8.10;;;3.80;;
5460;SDS011;2753;49.196;8.286;2023-09-18T04:48:42;10.40;;;3.10;;
5460;SDS011;2753;49.196;8.286;2023-09-18T04:51:08;14.43;;;3.93;;
5460;SDS011;2753;49.196;8.286;2023-09-18T04:53:34;6.10;;;3.20;;
5460;SDS011;2753;49.196;8.286;2023-09-18T04:55:59;21.47;;;3.93;;
5460;SDS011;2753;49.196;8.286;2023-09-18T04:58:25;13.23;;;3.60;;
5460;SDS011;2753;49.196;8.286;2023-09-18T05:00:55;11.23;;;3.50;;
5460;SDS011;2753;49.196;8.286;2023-09-18T05:03:22;16.50;;;4.40;;
5460;SDS011;2753;49.196;8.286;2023-09-18T05:05:48;15.07;;;3.70;;
5460;SDS011;2753;49.196;8.286;2023-09-18T05:08:14;11.53;;;3.30;;
5460;SDS011;2753;49.196;8.286;2023-09-18T05:10:40;9.83;;;3.60;;
5460;SDS011;2753;49.196;8.286;2023-09-18T05:13:05;12.13;;;3.13;;
5460;SDS011;2753;49.196;8.286;2023-09-18T05:15:32;8.97;;;3.80;;
5460;SDS011;2753;49.196;8.286;2023-09-18T05:17:59;10.70;;;3.80;;
5460;SDS011;2753;49.196;8.286;2023-09-18T05:20:25;19.97;;;4.00;;
5460;SDS011;2753;49.196;8.286;2023-09-18T05:22:56;14.90;;;3.77;;
5460;SDS011;2753;49.196;8.286;2023-09-18T05:25:22;12.33;;;3.30;;
5460;SDS011;2753;49.196;8.286;2023-09-18T05:27:50;11.73;;;3.63;;
5460;SDS011;2753;49.196;8.286;2023-09-18T05:30:26;8.70;;;2.70;;
5460;SDS011;2753;49.196;8.286;2023-09-18T05:32:54;23.73;;;4.30;;
5460;SDS011;2753;49.196;8.286;2023-09-18T05:35:21;7.43;;;3.40;;
5460;SDS011;2753;49.196;8.286;2023-09-18T05:37:48;13.80;;;3.40;;
5460;SDS011;2753;49.196;8.286;2023-09-18T05:40:15;13.83;;;4.37;;
5460;SDS011;2753;49.196;8.286;2023-09-18T05:42:42;10.83;;;4.03;;
5460;SDS011;2753;49.196;8.286;2023-09-18T05:45:09;18.70;;;4.80;;
5460;SDS011;2753;49.196;8.286;2023-09-18T05:47:36;13.13;;;3.80;;
5460;SDS011;2753;49.196;8.286;2023-09-18T05:50:03;12.13;;;4.53;;
5460;SDS011;2753;49.196;8.286;2023-09-18T05:52:34;12.43;;;4.40;;
5460;SDS011;2753;49.196;8.286;2023-09-18T05:55:03;14.87;;;3.40;;
5460;SDS011;2753;49.196;8.286;2023-09-18T05:57:29;23.40;;;5.90;;
5460;SDS011;2753;49.196;8.286;2023-09-18T05:59:55;14.10;;;4.60;;
5460;SDS011;2753;49.196;8.286;2023-09-18T06:02:22;12.60;;;3.70;;
5460;SDS011;2753;49.196;8.286;2023-09-18T06:04:49;11.83;;;3.80;;
5460;SDS011;2753;49.196;8.286;2023-09-18T06:07:26;12.67;;;4.13;;
5460;SDS011;2753;49.196;8.286;2023-09-18T06:09:52;14.00;;;4.27;;
5460;SDS011;2753;49.196;8.286;2023-09-18T06:12:18;11.87;;;3.87;;
5460;SDS011;2753;49.196;8.286;2023-09-18T06:14:44;10.53;;;3.80;;
5460;SDS011;2753;49.196;8.286;2023-09-18T06:17:13;11.40;;;3.47;;
5460;SDS011;2753;49.196;8.286;2023-09-18T06:19:43;21.43;;;3.53;;
5460;SDS011;2753;49.196;8.286;2023-09-18T06:22:09;12.73;;;3.70;;
5460;SDS011;2753;49.196;8.286;2023-09-18T06:24:37;12.23;;;3.20;;
5460;SDS011;2753;49.196;8.286;2023-09-18T06:27:39;19.07;;;3.93;;
5460;SDS011;2753;49.196;8.286;2023-09-18T06:30:12;12.90;;;3.40;;
5460;SDS011;2753;49.196;8.286;2023-09-18T06:33:12;13.47;;;3.00;;
5460;SDS011;2753;49.196;8.286;2023-09-18T06:35:39;3.97;;;3.00;;
5460;SDS011;2753;49.196;8.286;2023-09-18T06:38:07;8.43;;;2.77;;
5460;SDS011;2753;49.196;8.286;2023-09-18T06:40:42;13.03;;;3.17;;
5460;SDS011;2753;49.196;8.286;2023-09-18T06:43:14;7.23;;;2.33;;
5460;SDS011;2753;49.196;8.286;2023-09-18T06:45:47;11.87;;;2.40;;
5460;SDS011;2753;49.196;8.286;2023-09-18T06:48:53;7.83;;;2.73;;
5460;SDS011;2753;49.196;8.286;2023-09-18T06:54:48;7.93;;;2.20;;
5460;SDS011;2753;49.196;8.286;2023-09-18T06:57:24;9.80;;;2.27;;
5460;SDS011;2753;49.196;8.286;2023-09-18T06:59:57;7.23;;;2.30;;
5460;SDS011;2753;49.196;8.286;2023-09-18T07:03:04;11.83;;;3.17;;
5460;SDS011;2753;49.196;8.286;2023-09-18T07:05:43;13.37;;;3.20;;
5460;SDS011;2753;49.196;8.286;2023-09-18T07:08:33;6.60;;;2.40;;
5460;SDS011;2753;49.196;8.286;2023-09-18T07:10:59;13.17;;;2.67;;
5460;SDS011;2753;49.196;8.286;2023-09-18T07:13:32;10.33;;;2.10;;
5460;SDS011;2753;49.196;8.286;2023-09-18T07:16:00;5.47;;;1.97;;
5460;SDS011;2753;49.196;8.286;2023-09-18T07:18:25;15.87;;;3.20;;
5460;SDS011;2753;49.196;8.286;2023-09-18T07:20:51;7.20;;;2.03;;
5460;SDS011;2753;49.196;8.286;2023-09-18T07:23:17;12.67;;;2.27;;
5460;SDS011;2753;49.196;8.286;2023-09-18T07:25:44;7.23;;;2.37;;
5460;SDS011;2753;49.196;8.286;2023-09-18T07:28:10;14.10;;;1.93;;
5460;SDS011;2753;49.196;8.286;2023-09-18T07:30:41;13.83;;;2.37;;
5460;SDS011;2753;49.196;8.286;2023-09-18T07:33:06;7.17;;;1.97;;
5460;SDS011;2753;49.196;8.286;2023-09-18T08:50:38;4.97;;;1.53;;
5460;SDS011;2753;49.196;8.286;2023-09-18T08:53:05;3.37;;;1.10;;
5460;SDS011;2753;49.196;8.286;2023-09-18T08:55:31;5.43;;;1.30;;
5460;SDS011;2753;49.196;8.286;2023-09-18T08:57:58;2.10;;;1.00;;
5460;SDS011;2753;49.196;8.286;2023-09-18T09:00:27;8.30;;;1.63;;
5460;SDS011;2753;49.196;8.286;2023-09-18T09:02:53;1.47;;;1.00;;
5460;SDS011;2753;49.196;8.286;2023-09-18T09:05:23;2.23;;;1.30;;
5460;SDS011;2753;49.196;8.286;2023-09-18T09:07:49;9.10;;;1.30;;
5460;SDS011;2753;49.196;8.286;2023-09-18T09:10:15;6.93;;;1.53;;
5460;SDS011;2753;49.196;8.286;2023-09-18T09:15:24;1.90;;;1.00;;
5460;SDS011;2753;49.196;8.286;2023-09-18T09:17:52;3.00;;;1.00;;
5460;SDS011;2753;49.196;8.286;2023-09-18T09:20:31;2.07;;;1.50;;
5460;SDS011;2753;49.196;8.286;2023-09-18T09:23:01;2.20;;;1.27;;
5460;SDS011;2753;49.196;8.286;2023-09-18T09:25:28;5.00;;;1.50;;
5460;SDS011;2753;49.196;8.286;2023-09-18T09:28:00;11.00;;;1.50;;
5460;SDS011;2753;49.196;8.286;2023-09-18T09:30:28;1.23;;;1.00;;
5460;SDS011;2753;49.196;8.286;2023-09-18T09:32:56;3.13;;;1.00;;
5460;SDS011;2753;49.196;8.286;2023-09-18T09:37:52;1.53;;;1.00;;
5460;SDS011;2753;49.196;8.286;2023-09-18T09:40:20;3.13;;;1.67;;
5460;SDS011;2753;49.196;8.286;2023-09-18T09:42:47;7.83;;;1.70;;
5460;SDS011;2753;49.196;8.286;2023-09-18T09:45:16;6.13;;;1.30;;
5460;SDS011;2753;49.196;8.286;2023-09-18T09:47:42;16.90;;;1.80;;
5460;SDS011;2753;49.196;8.286;2023-09-18T09:50:10;11.80;;;1.80;;
5460;SDS011;2753;49.196;8.286;2023-09-18T09:52:36;8.87;;;1.30;;
5460;SDS011;2753;49.196;8.286;2023-09-18T09:55:31;3.93;;;1.47;;
5460;SDS011;2753;49.196;8.286;2023-09-18T09:58:04;3.67;;;1.43;;
5460;SDS011;2753;49.196;8.286;2023-09-18T10:03:11;3.40;;;1.77;;
5460;SDS011;2753;49.196;8.286;2023-09-18T10:05:40;3.77;;;1.43;;
5460;SDS011;2753;49.196;8.286;2023-09-18T10:08:08;10.27;;;1.97;;
5460;SDS011;2753;49.196;8.286;2023-09-18T10:10:38;5.13;;;1.30;;
5460;SDS011;2753;49.196;8.286;2023-09-18T10:13:09;3.90;;;1.20;;
5460;SDS011;2753;49.196;8.286;2023-09-18T10:15:38;3.53;;;1.30;;
5460;SDS011;2753;49.196;8.286;2023-09-18T10:18:09;11.30;;;1.50;;
5460;SDS011;2753;49.196;8.286;2023-09-18T10:20:42;4.83;;;1.50;;
5460;SDS011;2753;49.196;8.286;2023-09-18T10:23:12;4.30;;;1.80;;
5460;SDS011;2753;49.196;8.286;2023-09-18T10:25:48;4.83;;;1.53;;
5460;SDS011;2753;49.196;8.286;2023-09-18T10:28:19;17.57;;;1.40;;
5460;SDS011;2753;49.196;8.286;2023-09-18T10:30:48;6.10;;;1.23;;
5460;SDS011;2753;49.196;8.286;2023-09-18T10:33:16;6.03;;;1.60;;
5460;SDS011;2753;49.196;8.286;2023-09-18T10:35:42;13.97;;;1.50;;
5460;SDS011;2753;49.196;8.286;2023-09-18T10:38:08;10.33;;;1.23;;
5460;SDS011;2753;49.196;8.286;2023-09-18T10:40:36;4.20;;;1.20;;
5460;SDS011;2753;49.196;8.286;2023-09-18T10:43:02;5.10;;;1.70;;
5460;SDS011;2753;49.196;8.286;2023-09-18T10:45:30;3.73;;;1.57;;
5460;SDS011;2753;49.196;8.286;2023-09-18T10:47:56;8.57;;;3.27;;
5460;SDS011;2753;49.196;8.286;2023-09-18T10:50:23;5.30;;;1.40;;
5460;SDS011;2753;49.196;8.286;2023-09-18T10:52:50;9.57;;;2.10;;
5460;SDS011;2753;49.196;8.286;2023-09-18T10:55:16;4.00;;;1.20;;
5460;SDS011;2753;49.196;8.286;2023-09-18T10:58:03;4.80;;;1.50;;
5460;SDS011;2753;49.196;8.286;2023-09-18T11:00:28;3.63;;;1.27;;
5460;SDS011;2753;49.196;8.286;2023-09-18T11:03:09;3.80;;;1.83;;
5460;SDS011;2753;49.196;8.286;2023-09-18T11:05:37;2.93;;;1.47;;
5460;SDS011;2753;49.196;8.286;2023-09-18T11:10:54;7.33;;;0.93;;
5460;SDS011;2753;49.196;8.286;2023-09-18T11:13:28;1.53;;;1.27;;
5460;SDS011;2753;49.196;8.286;2023-09-18T11:15:58;5.57;;;1.27;;
5460;SDS011;2753;49.196;8.286;2023-09-18T11:18:50;2.20;;;1.23;;
5460;SDS011;2753;49.196;8.286;2023-09-18T11:21:27;5.03;;;1.23;;
5460;SDS011;2753;49.196;8.286;2023-09-18T11:23:57;4.50;;;1.20;;
5460;SDS011;2753;49.196;8.286;2023-09-18T11:26:24;11.27;;;1.30;;
5460;SDS011;2753;49.196;8.286;2023-09-18T11:28:54;4.00;;;1.27;;
5460;SDS011;2753;49.196;8.286;2023-09-18T11:31:20;3.83;;;1.60;;
5460;SDS011;2753;49.196;8.286;2023-09-18T11:34:22;3.20;;;0.90;;
5460;SDS011;2753;49.196;8.286;2023-09-18T11:37:01;1.30;;;0.93;;
5460;SDS011;2753;49.196;8.286;2023-09-18T11:39:44;1.73;;;1.37;;
5460;SDS011;2753;49.196;8.286;2023-09-18T11:44:42;8.90;;;1.90;;
5460;SDS011;2753;49.196;8.286;2023-09-18T11:47:17;2.83;;;1.20;;
5460;SDS011;2753;49.196;8.286;2023-09-18T11:52:23;1.70;;;1.03;;
5460;SDS011;2753;49.196;8.286;2023-09-18T11:54:51;2.80;;;1.63;;
5460;SDS011;2753;49.196;8.286;2023-09-18T11:57:23;2.00;;;1.40;;
5460;SDS011;2753;49.196;8.286;2023-09-18T11:59:50;6.23;;;1.40;;
5460;SDS011;2753;49.196;8.286;2023-09-18T12:02:29;4.57;;;1.30;;
5460;SDS011;2753;49.196;8.286;2023-09-18T12:05:04;6.17;;;1.30;;
5460;SDS011;2753;49.196;8.286;2023-09-18T12:07:34;2.67;;;1.40;;
5460;SDS011;2753;49.196;8.286;2023-09-18T12:10:01;5.57;;;1.40;;
5460;SDS011;2753;49.196;8.286;2023-09-18T12:12:30;2.67;;;1.20;;
5460;SDS011;2753;49.196;8.286;2023-09-18T12:14:56;6.60;;;1.50;;
5460;SDS011;2753;49.196;8.286;2023-09-18T12:17:22;5.80;;;1.70;;
5460;SDS011;2753;49.196;8.286;2023-09-18T12:19:52;5.47;;;1.20;;
5460;SDS011;2753;49.196;8.286;2023-09-18T12:22:28;2.90;;;1.23;;
5460;SDS011;2753;49.196;8.286;2023-09-18T12:25:14;5.57;;;1.50;;
5460;SDS011;2753;49.196;8.286;2023-09-18T12:27:42;2.37;;;1.10;;
5460;SDS011;2753;49.196;8.286;2023-09-18T12:30:08;5.63;;;2.17;;
5460;SDS011;2753;49.196;8.286;2023-09-18T12:32:37;5.50;;;1.93;;
5460;SDS011;2753;49.196;8.286;2023-09-18T12:35:05;6.63;;;1.50;;
5460;SDS011;2753;49.196;8.286;2023-09-18T12:37:39;6.50;;;1.80;;
5460;SDS011;2753;49.196;8.286;2023-09-18T12:40:24;2.10;;;1.20;;
5460;SDS011;2753;49.196;8.286;2023-09-18T12:42:53;4.37;;;1.63;;
5460;SDS011;2753;49.196;8.286;2023-09-18T12:45:26;3.00;;;1.10;;
5460;SDS011;2753;49.196;8.286;2023-09-18T12:47:54;3.87;;;1.40;;
5460;SDS011;2753;49.196;8.286;2023-09-18T12:50:21;4.17;;;1.27;;
5460;SDS011;2753;49.196;8.286;2023-09-18T12:52:48;3.07;;;1.63;;
5460;SDS011;2753;49.196;8.286;2023-09-18T12:55:26;3.40;;;0.97;;
5460;SDS011;2753;49.196;8.286;2023-09-18T12:57:52;3.80;;;1.10;;
5460;SDS011;2753;49.196;8.286;2023-09-18T13:00:19;4.50;;;1.47;;
5460;SDS011;2753;49.196;8.286;2023-09-18T13:02:51;4.20;;;1.50;;
5460;SDS011;2753;49.196;8.286;2023-09-18T13:05:21;3.17;;;1.47;;
5460;SDS011;2753;49.196;8.286;2023-09-18T13:07:50;5.70;;;1.13;;
5460;SDS011;2753;49.196;8.286;2023-09-18T13:10:18;3.27;;;1.47;;
5460;SDS011;2753;49.196;8.286;2023-09-18T13:12:48;4.10;;;1.10;;
5460;SDS011;2753;49.196;8.286;2023-09-18T13:15:28;5.90;;;1.73;;
5460;SDS011;2753;49.196;8.286;2023-09-18T13:17:56;3.23;;;1.50;;
5460;SDS011;2753;49.196;8.286;2023-09-18T13:20:26;2.10;;;1.13;;
5460;SDS011;2753;49.196;8.286;2023-09-18T13:22:57;4.97;;;1.00;;
5460;SDS011;2753;49.196;8.286;2023-09-18T13:25:26;9.43;;;1.50;;
5460;SDS011;2753;49.196;8.286;2023-09-18T13:27:55;10.37;;;1.87;;
5460;SDS011;2753;49.196;8.286;2023-09-18T13:30:21;2.97;;;1.40;;
5460;SDS011;2753;49.196;8.286;2023-09-18T13:32:48;1.73;;;1.50;;
5460;SDS011;2753;49.196;8.286;2023-09-18T13:35:15;2.23;;;1.20;;
5460;SDS011;2753;49.196;8.286;2023-09-18T13:37:41;3.50;;;1.30;;
5460;SDS011;2753;49.196;8.286;2023-09-18T13:40:08;2.20;;;1.20;;
5460;SDS011;2753;49.196;8.286;2023-09-18T13:42:35;4.00;;;1.20;;
5460;SDS011;2753;49.196;8.286;2023-09-18T13:45:01;4.30;;;1.40;;
5460;SDS011;2753;49.196;8.286;2023-09-18T13:47:31;2.20;;;1.13;;
5460;SDS011;2753;49.196;8.286;2023-09-18T13:50:01;5.70;;;1.33;;
5460;SDS011;2753;49.196;8.286;2023-09-18T13:52:29;3.53;;;1.60;;
5460;SDS011;2753;49.196;8.286;2023-09-18T13:54:56;2.80;;;1.57;;
5460;SDS011;2753;49.196;8.286;2023-09-18T13:57:22;4.47;;;1.73;;
5460;SDS011;2753;49.196;8.286;2023-09-18T13:59:49;5.00;;;1.37;;
5460;SDS011;2753;49.196;8.286;2023-09-18T14:02:15;2.90;;;1.30;;
5460;SDS011;2753;49.196;8.286;2023-09-18T14:04:42;4.07;;;1.17;;
5460;SDS011;2753;49.196;8.286;2023-09-18T14:07:09;3.37;;;1.33;;
5460;SDS011;2753;49.196;8.286;2023-09-18T14:09:36;8.10;;;1.40;;
5460;SDS011;2753;49.196;8.286;2023-09-18T14:12:02;4.73;;;1.37;;
5460;SDS011;2753;49.196;8.286;2023-09-18T14:14:28;4.50;;;1.40;;
5460;SDS011;2753;49.196;8.286;2023-09-18T14:16:54;6.70;;;1.10;;
5460;SDS011;2753;49.196;8.286;2023-09-18T14:19:20;2.20;;;1.17;;
5460;SDS011;2753;49.196;8.286;2023-09-18T14:21:46;4.67;;;1.50;;
5460;SDS011;2753;49.196;8.286;2023-09-18T14:24:14;5.17;;;1.83;;
5460;SDS011;2753;49.196;8.286;2023-09-18T14:26:42;3.30;;;1.50;;
5460;SDS011;2753;49.196;8.286;2023-09-18T14:29:09;5.17;;;1.43;;
5460;SDS011;2753;49.196;8.286;2023-09-18T14:31:36;2.50;;;1.47;;
5460;SDS011;2753;49.196;8.286;2023-09-18T14:34:02;2.70;;;1.33;;
5460;SDS011;2753;49.196;8.286;2023-09-18T14:36:30;3.07;;;1.50;;
5460;SDS011;2753;49.196;8.286;2023-09-18T14:39:01;3.43;;;1.30;;
5460;SDS011;2753;49.196;8.286;2023-09-18T14:41:30;4.00;;;1.20;;
5460;SDS011;2753;49.196;8.286;2023-09-18T14:43:57;4.17;;;1.27;;
5460;SDS011;2753;49.196;8.286;2023-09-18T14:46:23;3.77;;;1.77;;
5460;SDS011;2753;49.196;8.286;2023-09-18T14:48:49;4.63;;;1.23;;
5460;SDS011;2753;49.196;8.286;2023-09-18T14:51:15;5.93;;;2.00;;
5460;SDS011;2753;49.196;8.286;2023-09-18T14:53:41;3.73;;;1.67;;
5460;SDS011;2753;49.196;8.286;2023-09-18T14:56:07;1.83;;;1.73;;
5460;SDS011;2753;49.196;8.286;2023-09-18T14:58:33;2.70;;;1.40;;
5460;SDS011;2753;49.196;8.286;2023-09-18T15:00:59;1.80;;;1.30;;
5460;SDS011;2753;49.196;8.286;2023-09-18T15:03:27;3.20;;;1.50;;
5460;SDS011;2753;49.196;8.286;2023-09-18T15:05:52;6.93;;;1.10;;
5460;SDS011;2753;49.196;8.286;2023-09-18T15:08:20;2.10;;;1.40;;
5460;SDS011;2753;49.196;8.286;2023-09-18T15:10:46;4.63;;;1.20;;
5460;SDS011;2753;49.196;8.286;2023-09-18T15:13:12;7.63;;;1.60;;
5460;SDS011;2753;49.196;8.286;2023-09-18T15:15:39;3.57;;;1.30;;
5460;SDS011;2753;49.196;8.286;2023-09-18T15:18:05;13.53;;;1.97;;
5460;SDS011;2753;49.196;8.286;2023-09-18T15:20:31;1.17;;;1.03;;
5460;SDS011;2753;49.196;8.286;2023-09-18T15:22:57;2.33;;;1.47;;
5460;SDS011;2753;49.196;8.286;2023-09-18T15:25:23;3.00;;;1.07;;
5460;SDS011;2753;49.196;8.286;2023-09-18T15:27:48;1.90;;;1.13;;
5460;SDS011;2753;49.196;8.286;2023-09-18T15:30:14;4.00;;;1.13;;
5460;SDS011;2753;49.196;8.286;2023-09-18T15:32:48;3.57;;;1.40;;
5460;SDS011;2753;49.196;8.286;2023-09-18T15:35:19;1.03;;;1.03;;
5460;SDS011;2753;49.196;8.286;2023-09-18T15:37:46;2.03;;;1.13;;
5460;SDS011;2753;49.196;8.286;2023-09-18T15:40:12;2.37;;;1.20;;
5460;SDS011;2753;49.196;8.286;2023-09-18T15:42:40;1.90;;;1.37;;
5460;SDS011;2753;49.196;8.286;2023-09-18T15:45:06;2.43;;;1.27;;
5460;SDS011;2753;49.196;8.286;2023-09-18T15:47:34;1.40;;;1.13;;
5460;SDS011;2753;49.196;8.286;2023-09-18T15:49:59;6.83;;;1.60;;
5460;SDS011;2753;49.196;8.286;2023-09-18T15:57:36;2.77;;;1.40;;
5460;SDS011;2753;49.196;8.286;2023-09-18T16:00:13;3.00;;;1.00;;
5460;SDS011;2753;49.196;8.286;2023-09-18T16:02:42;2.50;;;1.20;;
5460;SDS011;2753;49.196;8.286;2023-09-18T16:05:34;1.43;;;1.10;;
5460;SDS011;2753;49.196;8.286;2023-09-18T16:08:22;6.53;;;2.97;;
5460;SDS011;2753;49.196;8.286;2023-09-18T16:10:49;4.30;;;4.00;;
5460;SDS011;2753;49.196;8.286;2023-09-18T16:16:38;2.00;;;1.63;;
5460;SDS011;2753;49.196;8.286;2023-09-18T16:19:04;4.70;;;1.83;;
5460;SDS011;2753;49.196;8.286;2023-09-18T16:21:31;3.17;;;2.03;;
5460;SDS011;2753;49.196;8.286;2023-09-18T16:23:57;1.83;;;1.30;;
5460;SDS011;2753;49.196;8.286;2023-09-18T16:26:23;2.67;;;1.10;;
5460;SDS011;2753;49.196;8.286;2023-09-18T16:28:48;4.57;;;1.43;;
5460;SDS011;2753;49.196;8.286;2023-09-18T16:31:14;1.50;;;1.13;;
5460;SDS011;2753;49.196;8.286;2023-09-18T16:36:48;2.60;;;0.90;;
5460;SDS011;2753;49.196;8.286;2023-09-18T16:39:14;4.90;;;1.30;;
5460;SDS011;2753;49.196;8.286;2023-09-18T16:41:43;2.73;;;1.27;;
5460;SDS011;2753;49.196;8.286;2023-09-18T16:44:10;1.57;;;1.47;;
5460;SDS011;2753;49.196;8.286;2023-09-18T16:46:37;3.20;;;1.00;;
5460;SDS011;2753;49.196;8.286;2023-09-18T16:49:03;6.03;;;1.30;;
5460;SDS011;2753;49.196;8.286;2023-09-18T16:51:32;4.40;;;1.87;;
5460;SDS011;2753;49.196;8.286;2023-09-18T16:53:58;6.73;;;1.40;;
5460;SDS011;2753;49.196;8.286;2023-09-18T16:56:24;6.63;;;1.90;;
5460;SDS011;2753;49.196;8.286;2023-09-18T16:58:51;6.83;;;1.50;;
5460;SDS011;2753;49.196;8.286;2023-09-18T17:01:17;10.60;;;1.50;;
5460;SDS011;2753;49.196;8.286;2023-09-18T17:03:43;3.53;;;1.03;;
5460;SDS011;2753;49.196;8.286;2023-09-18T17:06:09;4.60;;;1.30;;
5460;SDS011;2753;49.196;8.286;2023-09-18T17:08:38;4.07;;;1.43;;
5460;SDS011;2753;49.196;8.286;2023-09-18T17:11:07;4.37;;;1.90;;